createdAt,value
2023-03-24T00:03:19.432Z,81.60
2023-03-24T00:06:49.367Z,81.67
2023-03-24T00:10:18.585Z,81.81
2023-03-24T00:13:47.314Z,81.85
2023-03-24T00:17:17.703Z,82.57
2023-03-24T00:20:46.375Z,82.88
2023-03-24T00:24:14.632Z,83.21
2023-03-24T00:27:41.930Z,83.63
2023-03-24T00:31:11.033Z,83.76
2023-03-24T00:34:38.656Z,84.31
2023-03-24T00:38:06.003Z,84.30
2023-03-24T00:41:33.342Z,84.29
2023-03-24T00:45:00.320Z,84.30
2023-03-24T00:48:27.480Z,84.20
2023-03-24T00:51:58.185Z,84.28
2023-03-24T00:55:28.651Z,84.32
2023-03-24T00:58:57.840Z,84.38
2023-03-24T01:02:27.851Z,84.36
2023-03-24T01:05:57.832Z,84.47
2023-03-24T01:09:25.426Z,84.45
2023-03-24T01:12:52.527Z,84.14
2023-03-24T01:16:20.399Z,84.11
2023-03-24T01:19:47.557Z,83.94
2023-03-24T01:23:17.325Z,84.10
2023-03-24T01:26:44.539Z,84.13
2023-03-24T01:30:15.285Z,84.40
2023-03-24T01:33:42.695Z,84.89
2023-03-24T01:37:09.935Z,84.87
2023-03-24T01:40:38.957Z,84.67
2023-03-24T01:44:27.309Z,84.85
2023-03-24T01:47:54.493Z,84.68
2023-03-24T01:51:24.642Z,84.66
2023-03-24T01:54:54.694Z,84.34
2023-03-24T01:58:24.316Z,84.21
2023-03-24T02:02:10.035Z,84.02
2023-03-24T02:05:58.852Z,84.00
2023-03-24T02:09:26.186Z,84.08
2023-03-24T02:12:53.685Z,83.87
2023-03-24T02:16:34.522Z,83.84
2023-03-24T02:20:27.756Z,83.81
2023-03-24T02:24:18.135Z,83.89
2023-03-24T02:28:07.170Z,84.16
2023-03-24T02:31:55.922Z,84.17
2023-03-24T02:35:44.984Z,84.43
2023-03-24T02:39:32.325Z,84.53
2023-03-24T02:43:11.108Z,84.48
2023-03-24T02:46:46.196Z,84.48
2023-03-24T02:50:27.064Z,84.52
2023-03-24T02:54:04.467Z,84.71
2023-03-24T02:57:37.044Z,84.77
2023-03-24T03:01:13.923Z,84.71
2023-03-24T03:05:14.014Z,85.21
2023-03-24T03:08:42.817Z,85.53
2023-03-24T03:12:12.930Z,85.82
2023-03-24T03:15:44.275Z,86.34
2023-03-24T03:19:18.207Z,86.28
2023-03-24T03:22:49.915Z,86.28
2023-03-24T03:26:20.122Z,86.14
2023-03-24T03:29:54.486Z,86.15
2023-03-24T03:33:26.255Z,86.25
2023-03-24T03:37:00.065Z,85.85
2023-03-24T03:40:32.826Z,86.03
2023-03-24T03:44:05.807Z,86.03
2023-03-24T03:47:34.546Z,85.83
2023-03-24T03:51:12.929Z,85.62
2023-03-24T03:54:43.857Z,85.39
2023-03-24T03:58:11.263Z,85.23
2023-03-24T04:01:42.055Z,85.28
2023-03-24T04:05:36.957Z,85.24
2023-03-24T04:09:19.882Z,85.13
2023-03-24T04:13:01.204Z,85.21
2023-03-24T04:17:15.882Z,85.43
2023-03-24T04:20:52.082Z,85.43
2023-03-24T04:24:29.748Z,85.76
2023-03-24T04:28:03.811Z,85.79
2023-03-24T04:31:37.322Z,85.85
2023-03-24T04:35:10.034Z,85.96
2023-03-24T04:39:05.197Z,86.08
2023-03-24T04:42:45.324Z,86.21
2023-03-24T04:46:18.089Z,86.05
2023-03-24T04:50:12.611Z,86.06
2023-03-24T04:53:40.164Z,86.10
2023-03-24T04:57:08.081Z,86.34
2023-03-24T05:00:45.157Z,86.03
2023-03-24T05:04:14.018Z,86.15
2023-03-24T05:07:41.169Z,86.37
2023-03-24T05:11:11.362Z,86.27
2023-03-24T05:14:42.073Z,86.31
2023-03-24T05:18:10.164Z,86.19
2023-03-24T05:21:37.563Z,85.95
2023-03-24T05:25:06.314Z,85.87
2023-03-24T05:28:33.940Z,86.09
2023-03-24T05:32:01.890Z,86.16
2023-03-24T05:35:30.739Z,86.30
2023-03-24T05:38:57.880Z,86.25
2023-03-24T05:42:31.726Z,86.19
2023-03-24T05:46:00.278Z,85.83
2023-03-24T05:49:30.753Z,85.77
2023-03-24T05:52:58.426Z,85.55
2023-03-24T05:56:49.372Z,85.69
2023-03-24T06:00:27.255Z,85.53
2023-03-24T06:03:58.401Z,85.45
2023-03-24T06:07:26.984Z,85.54
2023-03-24T06:10:55.293Z,85.55
2023-03-24T06:14:22.780Z,85.57
2023-03-24T06:18:01.160Z,85.42
2023-03-24T06:21:35.393Z,85.45
2023-03-24T06:25:05.235Z,85.42
2023-03-24T06:28:34.677Z,85.47
2023-03-24T06:32:05.713Z,85.54
2023-03-24T06:35:38.312Z,85.59
2023-03-24T06:39:09.734Z,85.86
2023-03-24T06:42:37.630Z,85.96
2023-03-24T06:46:05.450Z,86.11
2023-03-24T06:49:34.901Z,86.13
2023-03-24T06:53:01.988Z,86.38
2023-03-24T06:56:30.690Z,86.53
2023-03-24T06:59:59.047Z,86.64
2023-03-24T07:03:30.758Z,86.63
2023-03-24T07:07:56.996Z,86.72
2023-03-24T07:11:29.258Z,86.64
2023-03-24T07:15:00.462Z,86.62
2023-03-24T07:18:28.219Z,86.69
2023-03-24T07:21:59.951Z,86.76
2023-03-24T07:25:37.699Z,86.74
2023-03-24T07:29:18.452Z,86.58
2023-03-24T07:33:12.162Z,86.59
2023-03-24T07:36:39.569Z,86.45
2023-03-24T07:40:12.935Z,86.31
2023-03-24T07:43:40.185Z,86.21
2023-03-24T07:47:25.429Z,86.09
2023-03-24T07:50:55.173Z,86.12
2023-03-24T07:54:41.043Z,86.05
2023-03-24T07:58:09.243Z,86.00
2023-03-24T08:01:39.045Z,86.12
2023-03-24T08:05:10.373Z,86.16
2023-03-24T08:08:49.584Z,86.13
2023-03-24T08:12:20.513Z,86.20
2023-03-24T08:15:48.329Z,85.92
2023-03-24T08:19:16.538Z,85.83
2023-03-24T08:22:45.014Z,85.33
2023-03-24T08:26:13.182Z,84.96
2023-03-24T08:29:40.682Z,84.33
2023-03-24T08:33:08.434Z,83.87
2023-03-24T08:36:36.509Z,82.88
2023-03-24T08:40:05.675Z,82.44
2023-03-24T08:43:33.768Z,81.66
2023-03-24T08:47:01.865Z,80.99
2023-03-24T08:50:31.495Z,80.64
2023-03-24T08:53:56.949Z,80.35
2023-03-24T08:57:24.298Z,79.31
2023-03-24T09:00:52.217Z,77.74
2023-03-24T09:04:19.423Z,77.39
2023-03-24T09:07:47.419Z,76.00
2023-03-24T09:11:20.328Z,75.50
2023-03-24T09:14:52.260Z,74.92
2023-03-24T09:18:21.614Z,74.48
2023-03-24T09:21:50.257Z,73.87
2023-03-24T09:25:22.668Z,73.25
2023-03-24T09:28:49.775Z,73.48
2023-03-24T09:32:16.868Z,73.35
2023-03-24T09:35:44.620Z,72.39
2023-03-24T09:39:11.733Z,72.16
2023-03-24T09:42:42.444Z,71.49
2023-03-24T09:46:16.109Z,70.44
2023-03-24T09:49:45.524Z,70.31
2023-03-24T09:53:29.108Z,69.87
2023-03-24T09:56:58.796Z,69.68
2023-03-24T10:00:28.992Z,70.47
2023-03-24T10:04:00.497Z,70.14
2023-03-24T10:07:33.879Z,69.78
2023-03-24T10:11:06.368Z,69.83
2023-03-24T10:14:51.355Z,70.03
2023-03-24T10:18:36.036Z,70.39
2023-03-24T10:22:12.386Z,71.17
2023-03-24T10:25:51.209Z,71.37
2023-03-24T10:29:26.402Z,71.34
2023-03-24T10:32:55.167Z,71.01
2023-03-24T10:36:25.203Z,71.27
2023-03-24T10:39:53.494Z,71.50
2023-03-24T10:43:23.727Z,71.88
2023-03-24T10:46:55.382Z,72.19
2023-03-24T10:50:28.393Z,72.37
2023-03-24T10:54:17.501Z,72.59
2023-03-24T10:57:47.564Z,72.73
2023-03-24T11:01:26.313Z,72.38
2023-03-24T11:04:58.961Z,72.11
2023-03-24T11:08:32.962Z,71.62
2023-03-24T11:12:06.235Z,71.05
2023-03-24T11:15:37.426Z,71.22
2023-03-24T11:19:07.792Z,71.52
2023-03-24T11:22:34.942Z,71.36
2023-03-24T11:26:16.868Z,71.11
2023-03-24T11:29:50.008Z,71.35
2023-03-24T11:33:36.159Z,71.09
2023-03-24T11:37:06.410Z,71.01
2023-03-24T11:40:33.892Z,71.45
2023-03-24T11:44:17.154Z,71.86
2023-03-24T11:47:46.239Z,71.76
2023-03-24T11:51:18.996Z,71.34
2023-03-24T11:54:46.748Z,70.88
2023-03-24T11:58:25.009Z,70.54
2023-03-24T12:02:00.526Z,70.68
2023-03-24T12:05:38.006Z,70.79
2023-03-24T12:09:15.068Z,70.63
2023-03-24T12:12:51.707Z,69.83
2023-03-24T12:16:39.802Z,69.73
2023-03-24T12:20:18.355Z,69.50
2023-03-24T12:23:58.578Z,69.53
2023-03-24T12:27:36.848Z,67.04
2023-03-24T12:31:16.182Z,66.27
2023-03-24T12:35:22.655Z,64.78
2023-03-24T12:39:02.555Z,65.32
2023-03-24T12:42:38.930Z,64.67
2023-03-24T12:46:17.279Z,62.16
2023-03-24T12:49:54.213Z,61.73
2023-03-24T12:53:53.806Z,62.01
2023-03-24T12:57:26.309Z,61.66
2023-03-24T13:01:02.994Z,59.95
2023-03-24T13:04:34.947Z,59.32
2023-03-24T13:08:06.658Z,58.03
2023-03-24T13:11:41.404Z,57.22
2023-03-24T13:15:17.490Z,56.92
2023-03-24T13:18:48.822Z,57.81
2023-03-24T13:22:21.509Z,57.74
2023-03-24T13:25:55.441Z,57.75
2023-03-24T13:29:48.496Z,57.59
2023-03-24T13:33:21.357Z,56.81
2023-03-24T13:36:52.810Z,56.89
2023-03-24T13:40:26.864Z,57.68
2023-03-24T13:44:02.594Z,57.85
2023-03-24T13:47:48.469Z,58.14
2023-03-24T13:51:21.738Z,57.98
2023-03-24T13:54:52.080Z,58.19
2023-03-24T13:58:23.847Z,58.35
2023-03-24T14:02:21.999Z,58.44
2023-03-24T14:06:04.863Z,58.95
2023-03-24T14:09:34.237Z,58.70
2023-03-24T14:13:19.451Z,58.59
2023-03-24T14:16:53.133Z,58.54
2023-03-24T14:20:40.050Z,58.28
2023-03-24T14:24:23.970Z,57.63
2023-03-24T14:27:53.466Z,57.48
2023-03-24T14:31:29.290Z,57.23
2023-03-24T14:35:00.226Z,57.40
2023-03-24T14:38:28.927Z,57.87
2023-03-24T14:41:59.021Z,58.43
2023-03-24T14:46:01.384Z,59.04
2023-03-24T14:49:33.692Z,59.49
2023-03-24T14:53:04.177Z,60.14
2023-03-24T14:56:37.015Z,60.44
2023-03-24T15:00:12.052Z,61.09
2023-03-24T15:03:50.927Z,61.55
2023-03-24T15:07:18.739Z,61.26
2023-03-24T15:10:50.975Z,61.85
2023-03-24T15:14:24.946Z,63.01
2023-03-24T15:17:53.142Z,64.86
2023-03-24T15:21:27.616Z,65.90
2023-03-24T15:24:59.507Z,67.43
2023-03-24T15:28:29.782Z,68.82
2023-03-24T15:31:57.031Z,70.02
2023-03-24T15:35:25.575Z,72.45
2023-03-24T15:38:53.593Z,72.30
2023-03-24T15:42:24.378Z,72.55
2023-03-24T15:46:08.881Z,72.58
2023-03-24T15:49:39.987Z,73.28
2023-03-24T15:53:24.719Z,73.60
2023-03-24T15:57:11.750Z,74.33
2023-03-24T16:00:42.447Z,74.96
2023-03-24T16:04:14.373Z,75.01
2023-03-24T16:07:42.844Z,74.82
2023-03-24T16:11:12.202Z,72.14
2023-03-24T16:14:40.038Z,68.53
2023-03-24T16:18:07.709Z,68.69
2023-03-24T16:21:34.756Z,68.69
2023-03-24T16:25:03.710Z,68.61
2023-03-24T16:28:32.818Z,68.24
2023-03-24T16:32:01.062Z,67.86
2023-03-24T16:35:28.654Z,67.72
2023-03-24T16:38:57.753Z,68.14
2023-03-24T16:42:24.784Z,68.77
2023-03-24T16:45:53.163Z,69.22
2023-03-24T16:49:23.076Z,69.74
2023-03-24T16:52:50.485Z,70.55
2023-03-24T16:56:19.924Z,71.28
2023-03-24T16:59:46.964Z,71.93
2023-03-24T17:03:14.999Z,72.76
2023-03-24T17:06:44.502Z,73.50
2023-03-24T17:10:12.543Z,74.14
2023-03-24T17:13:39.608Z,74.93
2023-03-24T17:17:11.522Z,75.21
2023-03-24T17:20:40.121Z,75.91
2023-03-24T17:24:10.993Z,76.40
2023-03-24T17:27:38.230Z,76.99
2023-03-24T17:31:05.472Z,77.53
2023-03-24T17:34:32.539Z,77.40
2023-03-24T17:37:59.548Z,76.86
2023-03-24T17:41:26.615Z,76.88
2023-03-24T17:44:53.780Z,77.33
2023-03-24T17:48:22.332Z,77.45
2023-03-24T17:51:52.579Z,77.76
2023-03-24T17:55:25.811Z,77.86
2023-03-24T17:58:58.950Z,77.83
2023-03-24T18:02:27.753Z,78.12
2023-03-24T18:05:56.246Z,78.24
2023-03-24T18:09:25.789Z,78.31
2023-03-24T18:12:55.161Z,78.72
2023-03-24T18:16:22.451Z,78.56
2023-03-24T18:19:50.379Z,79.64
2023-03-24T18:23:17.574Z,79.94
2023-03-24T18:26:44.768Z,80.59
2023-03-24T18:30:14.801Z,80.98
2023-03-24T18:33:42.996Z,81.14
2023-03-24T18:37:10.111Z,81.02
2023-03-24T18:40:37.145Z,80.85
2023-03-24T18:44:05.735Z,81.12
2023-03-24T18:47:32.788Z,81.15
2023-03-24T18:50:59.973Z,81.33
2023-03-24T18:54:27.387Z,81.24
2023-03-24T18:57:54.785Z,81.59
2023-03-24T19:01:23.594Z,81.52
2023-03-24T19:04:51.037Z,81.91
2023-03-24T19:08:19.005Z,81.73
2023-03-24T19:11:46.343Z,81.44
2023-03-24T19:15:15.313Z,81.48
2023-03-24T19:18:43.994Z,82.08
2023-03-24T19:22:11.759Z,82.12
2023-03-24T19:25:42.756Z,82.29
2023-03-24T19:29:10.448Z,82.05
2023-03-24T19:32:40.143Z,82.12
2023-03-24T19:36:06.638Z,82.17
2023-03-24T19:39:34.672Z,82.35
2023-03-24T19:43:05.798Z,82.63
2023-03-24T19:46:35.130Z,82.98
2023-03-24T19:50:04.119Z,83.24
2023-03-24T19:53:32.019Z,83.85
2023-03-24T19:56:59.802Z,84.00
2023-03-24T20:00:30.104Z,84.44
2023-03-24T20:03:58.634Z,84.76
2023-03-24T20:07:26.684Z,84.97
2023-03-24T20:10:55.235Z,85.55
2023-03-24T20:14:24.473Z,85.82
2023-03-24T20:17:54.151Z,85.78
2023-03-24T20:21:24.104Z,86.08
2023-03-24T20:24:51.606Z,86.43
2023-03-24T20:28:19.128Z,87.38
2023-03-24T20:31:46.324Z,87.34
2023-03-24T20:35:14.048Z,87.77
2023-03-24T20:38:41.656Z,87.23
2023-03-24T20:42:08.763Z,86.92
2023-03-24T20:45:35.777Z,86.89
2023-03-24T20:49:02.786Z,87.34
2023-03-24T20:52:30.085Z,88.15
2023-03-24T20:56:01.995Z,88.22
2023-03-24T20:59:30.147Z,88.08
2023-03-24T21:02:57.565Z,88.06
2023-03-24T21:06:25.075Z,88.21
2023-03-24T21:09:52.175Z,88.08
2023-03-24T21:13:21.653Z,88.07
2023-03-24T21:16:49.250Z,87.94
2023-03-24T21:20:16.838Z,88.15
2023-03-24T21:23:44.479Z,88.39
2023-03-24T21:27:11.606Z,88.51
2023-03-24T21:30:39.640Z,88.47
2023-03-24T21:34:06.760Z,88.39
2023-03-24T21:37:33.912Z,88.28
2023-03-24T21:41:02.133Z,88.51
2023-03-24T21:44:30.169Z,88.44
2023-03-24T21:47:57.519Z,88.33
2023-03-24T21:51:26.756Z,88.55
2023-03-24T21:54:58.367Z,88.63
2023-03-24T21:58:26.300Z,88.75
2023-03-24T22:01:53.576Z,88.66
2023-03-24T22:05:23.167Z,89.18
2023-03-24T22:08:50.622Z,89.66
2023-03-24T22:12:17.690Z,89.64
2023-03-24T22:15:44.682Z,89.61
2023-03-24T22:19:11.646Z,89.41
2023-03-24T22:22:39.931Z,89.63
2023-03-24T22:26:09.270Z,89.63
2023-03-24T22:29:36.338Z,89.87
2023-03-24T22:33:03.455Z,90.34
2023-03-24T22:36:30.637Z,91.25
2023-03-24T22:39:57.792Z,91.50
2023-03-24T22:43:24.845Z,91.75
2023-03-24T22:46:52.082Z,91.14
2023-03-24T22:50:19.564Z,91.26
2023-03-24T22:53:47.234Z,91.99
2023-03-24T22:57:14.297Z,92.55
2023-03-24T23:00:41.725Z,92.57
2023-03-24T23:04:09.039Z,92.14
2023-03-24T23:07:36.095Z,92.13
2023-03-24T23:11:04.152Z,92.07
2023-03-24T23:14:31.414Z,91.88
2023-03-24T23:17:58.576Z,91.64
2023-03-24T23:21:25.729Z,91.49
2023-03-24T23:25:02.390Z,91.53
2023-03-24T23:28:31.861Z,91.81
2023-03-24T23:31:59.049Z,91.20
2023-03-24T23:35:26.665Z,91.38
2023-03-24T23:38:54.784Z,92.30
2023-03-24T23:42:21.811Z,92.63
2023-03-24T23:45:49.781Z,92.93
2023-03-24T23:49:17.268Z,93.08
2023-03-24T23:52:45.121Z,93.18
2023-03-24T23:56:14.978Z,92.76
2023-03-24T23:59:40.390Z,93.11
